createdAt,value
2023-04-12T00:01:53.947Z,0.84
2023-04-12T00:04:28.886Z,1.63
2023-04-12T00:06:56.342Z,-0.42
2023-04-12T00:09:23.394Z,-0.02
2023-04-12T00:11:50.344Z,-0.38
2023-04-12T00:14:17.450Z,-0.31
2023-04-12T00:16:44.403Z,-1.45
2023-04-12T00:19:11.645Z,0.19
2023-04-12T00:21:38.474Z,0.15
2023-04-12T00:24:05.434Z,-0.36
2023-04-12T00:26:32.316Z,-0.51
2023-04-12T00:28:59.311Z,-1.64
2023-04-12T00:31:26.334Z,0.62
2023-04-12T00:33:53.067Z,1.00
2023-04-12T00:36:20.620Z,0.65
2023-04-12T00:38:48.159Z,-1.65
2023-04-12T00:41:15.534Z,1.05
2023-04-12T00:43:42.478Z,1.83
2023-04-12T00:46:10.081Z,0.83
2023-04-12T00:48:37.890Z,1.27
2023-04-12T00:51:07.347Z,0.69
2023-04-12T00:53:34.798Z,1.76
2023-04-12T00:56:03.975Z,2.21
2023-04-12T00:58:32.532Z,2.27
2023-04-12T01:01:00.412Z,2.03
2023-04-12T01:03:30.906Z,1.94
2023-04-12T01:06:22.348Z,1.91
2023-04-12T01:08:56.314Z,1.62
2023-04-12T01:11:38.846Z,0.66
2023-04-12T01:14:16.572Z,0.65
2023-04-12T01:16:51.237Z,-0.63
2023-04-12T01:19:34.300Z,1.44
2023-04-12T01:22:11.335Z,1.92
2023-04-12T01:24:47.065Z,1.00
2023-04-12T01:27:40.158Z,1.97
2023-04-12T01:30:08.320Z,2.23
2023-04-12T01:32:38.480Z,2.31
2023-04-12T01:35:08.945Z,1.68
2023-04-12T01:37:36.983Z,1.41
2023-04-12T01:40:06.043Z,2.45
2023-04-12T01:42:33.820Z,2.25
2023-04-12T01:45:02.190Z,2.09
2023-04-12T01:47:29.530Z,0.18
2023-04-12T01:50:38.013Z,1.31
2023-04-12T01:53:27.219Z,-1.28
2023-04-12T01:55:59.728Z,0.74
2023-04-12T01:58:29.123Z,0.76
2023-04-12T02:00:58.980Z,1.39
2023-04-12T02:03:27.097Z,0.62
2023-04-12T02:05:54.450Z,1.47
2023-04-12T02:08:22.081Z,1.16
2023-04-12T02:10:49.292Z,0.18
2023-04-12T02:13:18.510Z,1.19
2023-04-12T02:15:46.116Z,-1.13
2023-04-12T02:18:13.979Z,0.63
2023-04-12T02:20:42.055Z,1.67
2023-04-12T02:23:08.817Z,-0.39
2023-04-12T02:25:36.713Z,-0.56
2023-04-12T02:28:04.842Z,0.30
2023-04-12T02:30:31.742Z,0.54
2023-04-12T02:32:59.028Z,-0.30
2023-04-12T02:35:31.841Z,0.21
2023-04-12T02:38:08.731Z,-0.30
2023-04-12T02:40:40.874Z,1.68
2023-04-12T02:43:10.031Z,1.85
2023-04-12T02:45:41.379Z,1.50
2023-04-12T02:48:09.868Z,1.82
2023-04-12T02:50:37.544Z,1.82
2023-04-12T02:53:13.882Z,1.08
2023-04-12T02:55:44.964Z,0.50
2023-04-12T02:58:13.137Z,1.19
2023-04-12T03:00:48.501Z,1.60
2023-04-12T03:03:18.288Z,1.48
2023-04-12T03:05:48.099Z,0.89
2023-04-12T03:08:17.083Z,0.40
2023-04-12T03:10:51.846Z,0.65
2023-04-12T03:13:19.630Z,1.66
2023-04-12T03:15:50.324Z,1.52
2023-04-12T03:18:21.216Z,1.28
2023-04-12T03:20:52.458Z,0.60
2023-04-12T03:23:20.622Z,0.78
2023-04-12T03:25:54.133Z,1.26
2023-04-12T03:28:30.398Z,0.36
2023-04-12T03:30:58.671Z,2.09
2023-04-12T03:33:33.906Z,1.57
2023-04-12T03:36:03.885Z,0.51
2023-04-12T03:38:32.004Z,1.17
2023-04-12T03:40:59.600Z,2.19
2023-04-12T03:43:37.672Z,1.01
2023-04-12T03:46:16.865Z,0.76
2023-04-12T03:48:46.624Z,2.13
2023-04-12T03:51:15.585Z,1.29
2023-04-12T03:53:44.902Z,0.90
2023-04-12T03:56:15.193Z,0.83
2023-04-12T03:58:45.646Z,1.10
2023-04-12T04:01:15.518Z,1.93
2023-04-12T04:03:46.322Z,1.57
2023-04-12T04:06:24.433Z,0.15
2023-04-12T04:08:54.358Z,1.64
2023-04-12T04:11:21.777Z,1.96
2023-04-12T04:13:52.899Z,2.44
2023-04-12T04:16:21.037Z,2.33
2023-04-12T04:18:50.708Z,1.56
2023-04-12T04:21:22.424Z,1.49
2023-04-12T04:23:54.834Z,2.49
2023-04-12T04:26:33.694Z,0.04
2023-04-12T04:29:08.868Z,1.19
2023-04-12T04:31:38.876Z,1.05
2023-04-12T04:34:07.575Z,1.73
2023-04-12T04:36:41.736Z,1.26
2023-04-12T04:39:09.319Z,1.90
2023-04-12T04:41:41.557Z,3.31
2023-04-12T04:44:18.369Z,2.96
2023-04-12T04:46:57.941Z,3.49
2023-04-12T04:49:25.032Z,3.07
2023-04-12T04:51:52.213Z,3.91
2023-04-12T04:54:21.274Z,3.38
2023-04-12T04:56:48.028Z,2.16
2023-04-12T04:59:18.138Z,2.05
2023-04-12T05:01:45.067Z,1.17
2023-04-12T05:04:12.071Z,3.00
2023-04-12T05:06:38.935Z,3.01
2023-04-12T05:09:08.731Z,2.73
2023-04-12T05:11:41.857Z,2.55
2023-04-12T05:14:12.618Z,2.78
2023-04-12T05:16:40.599Z,3.35
2023-04-12T05:19:07.825Z,3.13
2023-04-12T05:21:35.372Z,3.19
2023-04-12T05:24:02.492Z,3.89
2023-04-12T05:26:33.200Z,1.71
2023-04-12T05:29:01.717Z,1.13
2023-04-12T05:31:28.798Z,1.76
2023-04-12T05:34:15.543Z,1.50
2023-04-12T05:36:51.647Z,2.83
2023-04-12T05:39:20.591Z,3.00
2023-04-12T05:41:48.881Z,2.45
2023-04-12T05:44:15.641Z,3.90
2023-04-12T05:46:42.907Z,1.89
2023-04-12T05:49:09.946Z,2.19
2023-04-12T05:51:41.451Z,3.11
2023-04-12T05:54:21.923Z,0.74
2023-04-12T05:56:54.405Z,1.23
2023-04-12T05:59:22.631Z,1.99
2023-04-12T06:01:50.464Z,0.90
2023-04-12T06:04:20.027Z,1.06
2023-04-12T06:06:47.571Z,2.29
2023-04-12T06:09:15.694Z,0.41
2023-04-12T06:11:43.409Z,2.21
2023-04-12T06:14:11.882Z,1.37
2023-04-12T06:16:41.279Z,2.22
2023-04-12T06:19:08.766Z,1.63
2023-04-12T06:21:36.048Z,1.67
2023-04-12T06:24:03.581Z,1.66
2023-04-12T06:26:38.868Z,2.37
2023-04-12T06:29:07.332Z,3.15
2023-04-12T06:31:35.006Z,3.26
2023-04-12T06:34:02.625Z,2.64
2023-04-12T06:36:29.505Z,3.17
2023-04-12T06:38:56.382Z,2.87
2023-04-12T06:41:23.775Z,3.00
2023-04-12T06:43:59.486Z,0.69
2023-04-12T06:46:29.783Z,1.00
2023-04-12T06:48:56.988Z,3.52
2023-04-12T06:51:24.181Z,3.64
2023-04-12T06:53:51.379Z,3.83
2023-04-12T06:56:18.689Z,2.18
2023-04-12T06:58:46.061Z,1.28
2023-04-12T07:01:14.707Z,2.41
2023-04-12T07:03:41.969Z,2.12
2023-04-12T07:06:23.760Z,1.45
2023-04-12T07:08:52.954Z,1.76
2023-04-12T07:11:23.330Z,1.94
2023-04-12T07:13:52.686Z,3.01
2023-04-12T07:16:19.643Z,4.29
2023-04-12T07:18:46.643Z,2.72
2023-04-12T07:21:14.604Z,4.22
2023-04-12T07:23:41.546Z,3.85
2023-04-12T07:26:08.839Z,4.24
2023-04-12T07:28:39.187Z,5.04
2023-04-12T07:31:07.862Z,5.52
2023-04-12T07:33:36.629Z,5.57
2023-04-12T07:36:04.880Z,4.17
2023-04-12T07:38:31.692Z,5.03
2023-04-12T07:40:58.657Z,4.39
2023-04-12T07:43:25.602Z,4.57
2023-04-12T07:45:55.398Z,3.86
2023-04-12T07:48:23.037Z,4.11
2023-04-12T07:50:51.594Z,3.12
2023-04-12T07:53:24.354Z,4.29
2023-04-12T07:55:51.689Z,2.43
2023-04-12T07:58:19.798Z,3.87
2023-04-12T08:00:47.116Z,5.57
2023-04-12T08:03:16.188Z,3.06
2023-04-12T08:05:44.462Z,5.16
2023-04-12T08:08:12.223Z,3.64
2023-04-12T08:10:39.830Z,5.55
2023-04-12T08:13:07.334Z,7.11
2023-04-12T08:15:34.558Z,5.61
2023-04-12T08:18:02.392Z,6.00
2023-04-12T08:20:29.583Z,3.87
2023-04-12T08:22:56.614Z,4.77
2023-04-12T08:25:24.578Z,5.13
2023-04-12T08:27:52.317Z,5.98
2023-04-12T08:30:19.860Z,4.95
2023-04-12T08:32:46.753Z,5.60
2023-04-12T08:35:14.874Z,6.10
2023-04-12T08:37:42.037Z,4.61
2023-04-12T08:40:09.698Z,6.03
2023-04-12T08:42:38.712Z,4.65
2023-04-12T08:45:07.234Z,5.59
2023-04-12T08:47:37.340Z,4.61
2023-04-12T08:50:09.762Z,6.66
2023-04-12T08:52:38.862Z,5.36
2023-04-12T08:55:10.669Z,3.76
2023-04-12T08:57:41.500Z,3.09
2023-04-12T09:00:10.992Z,4.42
2023-04-12T09:02:39.175Z,3.68
2023-04-12T09:05:07.061Z,6.08
2023-04-12T09:07:34.621Z,4.32
2023-04-12T09:10:01.823Z,3.08
2023-04-12T09:12:28.703Z,4.77
2023-04-12T09:15:12.891Z,4.94
2023-04-12T09:17:41.528Z,4.62
2023-04-12T09:20:17.607Z,7.77
2023-04-12T09:22:46.533Z,7.80
2023-04-12T09:25:15.750Z,4.13
2023-04-12T09:27:54.300Z,4.58
2023-04-12T09:30:21.400Z,5.75
2023-04-12T09:32:54.330Z,4.87
2023-04-12T09:35:35.340Z,6.26
2023-04-12T09:38:09.487Z,7.25
2023-04-12T09:40:37.760Z,5.84
2023-04-12T09:43:04.875Z,4.39
2023-04-12T09:45:35.465Z,5.64
2023-04-12T09:48:02.350Z,4.99
2023-04-12T09:50:33.466Z,4.82
2023-04-12T09:53:04.508Z,5.83
2023-04-12T09:55:32.688Z,5.91
2023-04-12T09:58:04.526Z,7.86
2023-04-12T10:00:34.702Z,6.77
2023-04-12T10:03:02.890Z,4.20
2023-04-12T10:05:30.388Z,6.33
2023-04-12T10:08:00.552Z,8.08
2023-04-12T10:10:30.946Z,8.56
2023-04-12T10:12:58.641Z,9.28
2023-04-12T10:15:26.596Z,9.66
2023-04-12T10:17:58.626Z,8.31
2023-04-12T10:20:29.230Z,10.00
2023-04-12T10:22:59.633Z,9.22
2023-04-12T10:25:31.230Z,9.37
2023-04-12T10:28:17.532Z,10.48
2023-04-12T10:30:45.520Z,12.28
2023-04-12T10:33:14.363Z,11.39
2023-04-12T10:36:08.750Z,12.13
2023-04-12T10:38:48.842Z,12.49
2023-04-12T10:41:20.112Z,13.23
2023-04-12T10:43:51.361Z,10.53
2023-04-12T10:46:41.450Z,13.24
2023-04-12T10:49:12.518Z,13.25
2023-04-12T10:51:41.239Z,11.22
2023-04-12T10:54:17.195Z,14.52
2023-04-12T10:56:47.684Z,16.39
2023-04-12T10:59:34.276Z,17.97
2023-04-12T11:02:12.581Z,18.53
2023-04-12T11:05:10.934Z,14.48
2023-04-12T11:08:02.183Z,11.27
2023-04-12T11:10:47.626Z,10.55
2023-04-12T11:13:23.518Z,12.45
2023-04-12T11:15:56.957Z,11.49
2023-04-12T11:18:25.382Z,9.13
2023-04-12T11:20:58.286Z,10.68
2023-04-12T11:23:26.186Z,9.30
2023-04-12T11:25:59.821Z,10.34
2023-04-12T11:28:30.507Z,11.66
2023-04-12T11:30:58.979Z,10.39
2023-04-12T11:33:37.253Z,12.14
2023-04-12T11:36:13.424Z,10.89
2023-04-12T11:38:41.777Z,8.86
2023-04-12T11:41:10.452Z,9.17
2023-04-12T11:43:40.539Z,13.80
2023-04-12T11:46:07.586Z,12.26
2023-04-12T11:48:35.450Z,10.54
2023-04-12T11:51:18.938Z,11.40
2023-04-12T11:53:46.238Z,9.49
2023-04-12T11:56:13.436Z,13.65
2023-04-12T11:58:40.938Z,12.93
2023-04-12T12:01:07.947Z,13.21
2023-04-12T12:03:36.126Z,12.58
2023-04-12T12:06:04.227Z,11.14
2023-04-12T12:08:31.470Z,8.79
2023-04-12T12:11:07.398Z,10.86
2023-04-12T12:13:54.741Z,9.94
2023-04-12T12:16:28.582Z,12.07
2023-04-12T12:18:57.256Z,10.77
2023-04-12T12:21:24.943Z,10.63
2023-04-12T12:23:52.485Z,12.48
2023-04-12T12:26:22.565Z,12.68
2023-04-12T12:28:54.625Z,13.14
2023-04-12T12:31:23.977Z,12.81
2023-04-12T12:33:58.570Z,10.47
2023-04-12T12:36:33.205Z,9.52
2023-04-12T12:39:18.362Z,11.81
2023-04-12T12:41:54.917Z,10.05
2023-04-12T12:44:23.114Z,11.10
2023-04-12T12:46:56.913Z,10.23
2023-04-12T12:49:30.111Z,10.56
2023-04-12T12:51:57.866Z,11.13
2023-04-12T12:54:38.631Z,11.13
2023-04-12T12:57:07.033Z,11.52
2023-04-12T12:59:33.853Z,11.57
2023-04-12T13:02:00.742Z,11.80
2023-04-12T13:04:28.533Z,11.94
2023-04-12T13:06:56.510Z,10.74
2023-04-12T13:09:23.400Z,10.68
2023-04-12T13:11:50.355Z,9.16
2023-04-12T13:14:17.185Z,7.93
2023-04-12T13:16:46.191Z,7.66
2023-04-12T13:19:13.148Z,8.83
2023-04-12T13:21:40.367Z,8.98
2023-04-12T13:24:07.526Z,10.69
2023-04-12T13:26:35.045Z,11.36
2023-04-12T13:29:02.312Z,12.62
2023-04-12T13:31:29.174Z,11.38
2023-04-12T13:33:56.817Z,9.62
2023-04-12T13:36:23.710Z,8.61
2023-04-12T13:38:50.567Z,9.20
2023-04-12T13:41:17.425Z,8.88
2023-04-12T13:43:44.209Z,7.60
2023-04-12T13:46:13.152Z,9.65
2023-04-12T13:48:41.010Z,9.32
2023-04-12T13:51:08.191Z,10.46
2023-04-12T13:53:36.416Z,10.24
2023-04-12T13:56:03.717Z,8.52
2023-04-12T13:58:30.529Z,8.36
2023-04-12T14:00:59.519Z,7.93
2023-04-12T14:03:27.390Z,9.46
2023-04-12T14:05:54.297Z,11.62
2023-04-12T14:08:21.107Z,7.25
2023-04-12T14:10:47.912Z,8.08
2023-04-12T14:13:14.756Z,10.00
2023-04-12T14:15:42.401Z,9.88
2023-04-12T14:18:09.233Z,9.95
2023-04-12T14:20:36.323Z,10.80
2023-04-12T14:23:03.822Z,9.50
2023-04-12T14:25:31.733Z,8.94
2023-04-12T14:27:58.950Z,8.11
2023-04-12T14:30:26.409Z,8.97
2023-04-12T14:32:53.791Z,9.03
2023-04-12T14:35:20.701Z,9.12
2023-04-12T14:37:48.252Z,10.25
2023-04-12T14:40:15.640Z,8.99
2023-04-12T14:42:43.904Z,10.03
2023-04-12T14:45:12.780Z,9.93
2023-04-12T14:47:41.559Z,10.28
2023-04-12T14:50:09.025Z,9.65
2023-04-12T14:52:35.991Z,9.60
2023-04-12T14:55:02.797Z,8.82
2023-04-12T14:57:29.731Z,9.59
2023-04-12T14:59:58.030Z,8.43
2023-04-12T15:02:26.898Z,8.92
2023-04-12T15:04:54.395Z,9.72
2023-04-12T15:07:21.325Z,10.04
2023-04-12T15:09:48.219Z,10.01
2023-04-12T15:12:15.094Z,10.10
2023-04-12T15:14:44.419Z,10.38
2023-04-12T15:17:12.992Z,9.77
2023-04-12T15:19:39.762Z,11.31
2023-04-12T15:22:06.538Z,9.35
2023-04-12T15:24:34.010Z,9.57
2023-04-12T15:27:02.743Z,8.04
2023-04-12T15:29:31.368Z,9.84
2023-04-12T15:31:58.335Z,10.74
2023-04-12T15:34:25.328Z,10.61
2023-04-12T15:36:53.163Z,10.71
2023-04-12T15:39:20.670Z,9.17
2023-04-12T15:41:47.476Z,11.15
2023-04-12T15:44:14.815Z,11.06
2023-04-12T15:46:43.500Z,10.25
2023-04-12T15:49:12.166Z,9.92
2023-04-12T15:51:39.713Z,8.41
2023-04-12T15:54:06.616Z,8.69
2023-04-12T15:56:34.596Z,9.26
2023-04-12T15:59:01.817Z,9.33
2023-04-12T16:01:28.853Z,8.76
2023-04-12T16:03:55.918Z,8.92
2023-04-12T16:06:25.296Z,8.61
2023-04-12T16:08:54.770Z,8.44
2023-04-12T16:11:27.193Z,9.23
2023-04-12T16:13:55.630Z,9.10
2023-04-12T16:16:23.696Z,9.73
2023-04-12T16:18:51.628Z,9.51
2023-04-12T16:21:20.725Z,8.54
2023-04-12T16:23:48.985Z,8.88
2023-04-12T16:26:24.737Z,8.22
2023-04-12T16:28:55.820Z,7.98
2023-04-12T16:31:23.015Z,8.26
2023-04-12T16:33:51.032Z,8.25
2023-04-12T16:36:18.546Z,8.84
2023-04-12T16:38:49.524Z,9.04
2023-04-12T16:41:18.707Z,8.73
2023-04-12T16:43:45.764Z,9.18
2023-04-12T16:46:13.002Z,8.74
2023-04-12T16:48:41.265Z,10.55
2023-04-12T16:51:08.306Z,9.04
2023-04-12T16:53:36.544Z,8.88
2023-04-12T16:56:04.635Z,9.27
2023-04-12T16:58:31.725Z,7.78
2023-04-12T17:00:59.547Z,8.63
2023-04-12T17:03:26.593Z,9.57
2023-04-12T17:05:53.799Z,10.86
2023-04-12T17:08:20.840Z,11.02
2023-04-12T17:10:47.669Z,10.29
2023-04-12T17:13:18.758Z,10.44
2023-04-12T17:15:48.324Z,10.59
2023-04-12T17:18:16.056Z,9.98
2023-04-12T17:20:44.520Z,10.53
2023-04-12T17:23:11.651Z,10.35
2023-04-12T17:25:39.648Z,8.86
2023-04-12T17:28:08.575Z,10.56
2023-04-12T17:30:35.550Z,10.79
2023-04-12T17:33:03.158Z,10.65
2023-04-12T17:35:30.269Z,9.67
2023-04-12T17:37:57.313Z,10.26
2023-04-12T17:40:24.161Z,10.04
2023-04-12T17:42:51.371Z,9.94
2023-04-12T17:45:21.568Z,10.89
2023-04-12T17:47:48.639Z,9.94
2023-04-12T17:50:15.961Z,9.50
2023-04-12T17:52:43.599Z,9.28
2023-04-12T17:55:12.694Z,9.44
2023-04-12T17:57:42.704Z,10.18
2023-04-12T18:00:15.097Z,9.14
2023-04-12T18:02:46.906Z,9.63
2023-04-12T18:05:15.256Z,9.69
2023-04-12T18:10:13.063Z,8.77
2023-04-12T18:12:41.381Z,9.75
2023-04-12T18:15:08.831Z,8.32
2023-04-12T18:17:36.040Z,8.85
2023-04-12T18:20:04.953Z,9.09
2023-04-12T18:22:31.778Z,8.75
2023-04-12T18:24:59.344Z,8.60
2023-04-12T18:27:26.566Z,8.06
2023-04-12T18:29:53.850Z,8.86
2023-04-12T18:32:21.360Z,7.52
2023-04-12T18:34:48.779Z,6.56
2023-04-12T18:37:16.882Z,6.28
2023-04-12T18:39:44.467Z,5.38
2023-04-12T18:42:11.835Z,6.33
2023-04-12T18:44:40.724Z,6.14
2023-04-12T18:47:07.846Z,6.92
2023-04-12T18:49:35.022Z,5.38
2023-04-12T18:52:02.136Z,5.93
2023-04-12T18:54:29.803Z,5.60
2023-04-12T18:57:01.898Z,6.07
2023-04-12T18:59:29.657Z,5.07
2023-04-12T19:01:56.906Z,5.14
2023-04-12T19:04:23.937Z,4.85
2023-04-12T19:06:50.925Z,5.84
2023-04-12T19:09:17.712Z,6.64
2023-04-12T19:11:46.062Z,6.06
2023-04-12T19:14:13.288Z,6.23
2023-04-12T19:16:41.412Z,6.94
2023-04-12T19:19:08.680Z,5.96
2023-04-12T19:21:35.584Z,5.69
2023-04-12T19:24:02.511Z,5.64
2023-04-12T19:26:31.223Z,5.01
2023-04-12T19:28:59.784Z,4.55
2023-04-12T19:31:27.013Z,5.67
2023-04-12T19:33:57.388Z,5.41
2023-04-12T19:36:24.737Z,5.71
2023-04-12T19:38:52.248Z,4.24
2023-04-12T19:41:20.499Z,5.14
2023-04-12T19:43:47.774Z,5.32
2023-04-12T19:46:16.349Z,4.54
2023-04-12T19:48:43.378Z,4.93
2023-04-12T19:51:10.375Z,4.16
2023-04-12T19:53:37.293Z,5.07
2023-04-12T19:56:04.483Z,4.72
2023-04-12T19:58:32.370Z,4.71
2023-04-12T20:01:02.965Z,5.69
2023-04-12T20:03:30.620Z,5.56
2023-04-12T20:06:04.200Z,6.09
2023-04-12T20:08:33.116Z,2.65
2023-04-12T20:11:00.678Z,4.19
2023-04-12T20:13:29.143Z,3.95
2023-04-12T20:15:57.533Z,4.69
2023-04-12T20:18:24.439Z,4.09
2023-04-12T20:20:53.275Z,4.01
2023-04-12T20:23:20.143Z,5.56
2023-04-12T20:25:48.981Z,5.10
2023-04-12T20:28:16.883Z,4.96
2023-04-12T20:30:47.002Z,5.99
2023-04-12T20:33:15.689Z,4.84
2023-04-12T20:35:42.885Z,5.96
2023-04-12T20:38:09.699Z,4.41
2023-04-12T20:40:36.590Z,5.11
2023-04-12T20:43:04.668Z,4.67
2023-04-12T20:45:32.848Z,4.64
2023-04-12T20:47:59.804Z,4.64
2023-04-12T20:50:30.872Z,5.31
2023-04-12T20:52:58.123Z,3.10
2023-04-12T20:55:33.749Z,4.93
2023-04-12T20:58:03.680Z,4.44
2023-04-12T21:00:33.003Z,4.92
2023-04-12T21:57:29.192Z,3.51
2023-04-12T21:59:56.012Z,5.12
2023-04-12T22:02:22.947Z,4.27
2023-04-12T22:04:49.801Z,3.39
2023-04-12T22:07:17.487Z,3.70
2023-04-12T22:09:45.574Z,4.66
2023-04-12T22:12:13.647Z,3.35
2023-04-12T22:14:46.648Z,3.32
2023-04-12T22:17:14.834Z,3.36
2023-04-12T22:19:42.085Z,4.39
2023-04-12T22:22:10.818Z,4.04
2023-04-12T22:24:38.775Z,4.22
2023-04-12T22:27:06.967Z,4.94
2023-04-12T22:29:34.596Z,5.83
2023-04-12T22:32:02.868Z,4.85
2023-04-12T22:34:29.708Z,4.20
2023-04-12T22:36:58.927Z,6.07
2023-04-12T22:39:26.921Z,3.70
2023-04-12T22:41:53.799Z,5.31
2023-04-12T22:44:23.702Z,3.40
2023-04-12T22:46:54.699Z,6.10
2023-04-12T22:49:28.236Z,4.65
2023-04-12T22:51:55.792Z,5.49
2023-04-12T22:54:23.627Z,5.13
2023-04-12T22:56:50.732Z,5.35
2023-04-12T22:59:20.017Z,4.29
2023-04-12T23:01:47.413Z,4.48
2023-04-12T23:04:16.112Z,5.36
2023-04-12T23:06:44.258Z,5.09
2023-04-12T23:09:12.363Z,5.21
2023-04-12T23:11:40.795Z,5.79
2023-04-12T23:14:08.873Z,6.06
2023-04-12T23:16:42.345Z,5.73
2023-04-12T23:19:09.140Z,5.06
2023-04-12T23:21:36.319Z,6.08
2023-04-12T23:24:04.453Z,5.53
2023-04-12T23:26:31.237Z,5.46
2023-04-12T23:28:58.450Z,4.71
2023-04-12T23:31:26.161Z,6.31
2023-04-12T23:33:53.008Z,5.37
2023-04-12T23:36:21.933Z,6.42
2023-04-12T23:38:48.655Z,5.91
2023-04-12T23:41:15.553Z,4.05
2023-04-12T23:43:42.763Z,5.06
2023-04-12T23:46:10.033Z,5.26
2023-04-12T23:48:37.254Z,4.66
2023-04-12T23:51:04.633Z,4.65
2023-04-12T23:53:31.611Z,5.16
2023-04-12T23:55:58.781Z,5.17
2023-04-12T23:58:26.176Z,6.16
